createdAt,value
2018-12-20T00:00:38.060Z,97780.72
2018-12-20T00:03:17.286Z,97795.00
2018-12-20T00:05:48.821Z,97793.86
2018-12-20T00:08:17.627Z,97794.17
2018-12-20T00:10:46.295Z,97793.84
2018-12-20T00:13:14.993Z,97794.98
2018-12-20T00:15:43.710Z,97789.13
2018-12-20T00:18:13.557Z,97785.23
2018-12-20T00:20:42.232Z,97769.01
2018-12-20T00:23:11.637Z,97778.78
2018-12-20T00:25:40.554Z,97763.67
2018-12-20T00:28:09.382Z,97759.97
2018-12-20T00:30:38.357Z,97762.65
2018-12-20T00:33:07.156Z,97768.30
2018-12-20T00:35:35.908Z,97747.75
2018-12-20T00:38:04.738Z,97742.66
2018-12-20T00:40:33.439Z,97730.00
2018-12-20T00:43:02.245Z,97745.03
2018-12-20T00:45:31.312Z,97740.16
2018-12-20T00:48:00.720Z,97747.08
2018-12-20T00:50:29.520Z,97745.75
2018-12-20T00:52:58.710Z,97745.03
2018-12-20T00:55:27.318Z,97723.59
2018-12-20T00:57:56.305Z,97736.47
2018-12-20T01:00:26.016Z,97728.16
2018-12-20T01:03:06.774Z,97729.36
2018-12-20T01:05:37.719Z,97733.90
2018-12-20T01:08:07.807Z,97760.61
2018-12-20T01:10:36.995Z,97760.80
2018-12-20T01:13:05.926Z,97759.86
2018-12-20T01:15:34.811Z,97771.39
2018-12-20T01:18:03.623Z,97761.09
2018-12-20T01:20:32.521Z,97780.45
2018-12-20T01:23:01.360Z,97773.59
2018-12-20T01:25:30.213Z,97768.56
2018-12-20T01:27:59.218Z,97766.23
2018-12-20T01:30:28.234Z,97778.35
2018-12-20T01:32:57.050Z,97771.58
2018-12-20T01:35:26.111Z,97774.47
2018-12-20T01:37:55.270Z,97759.77
2018-12-20T01:40:26.905Z,97758.88
2018-12-20T01:42:55.815Z,97781.09
2018-12-20T01:45:24.593Z,97772.27
2018-12-20T01:47:53.677Z,97747.67
2018-12-20T01:50:22.557Z,97761.65
2018-12-20T01:52:58.035Z,97766.37
2018-12-20T01:55:26.844Z,97759.70
2018-12-20T01:57:55.635Z,97758.88
2018-12-20T02:00:24.644Z,97781.09
2018-12-20T02:02:53.852Z,97736.16
2018-12-20T02:05:37.175Z,97747.35
2018-12-20T02:08:08.923Z,97756.20
2018-12-20T02:10:37.618Z,97756.44
2018-12-20T02:13:06.482Z,97763.64
2018-12-20T02:15:36.128Z,97751.48
2018-12-20T02:18:06.588Z,97757.25
2018-12-20T02:20:35.445Z,97761.86
2018-12-20T02:23:04.411Z,97760.11
2018-12-20T02:25:33.384Z,97765.96
2018-12-20T02:28:02.349Z,97781.71
2018-12-20T02:30:31.481Z,97784.98
2018-12-20T02:33:01.084Z,97764.73
2018-12-20T02:35:30.238Z,97793.86
2018-12-20T02:37:59.781Z,97810.30
2018-12-20T02:40:28.907Z,97812.05
2018-12-20T02:42:58.064Z,97807.61
2018-12-20T02:45:27.258Z,97824.05
2018-12-20T02:47:56.332Z,97819.63
2018-12-20T02:50:25.115Z,97825.19
2018-12-20T02:52:58.839Z,97823.34
2018-12-20T02:55:27.946Z,97822.80
2018-12-20T02:57:56.862Z,97809.62
2018-12-20T03:00:25.962Z,97817.65
2018-12-20T03:03:01.004Z,97804.89
2018-12-20T03:05:30.163Z,97806.70
2018-12-20T03:07:59.204Z,97809.36
2018-12-20T03:10:28.523Z,97810.27
2018-12-20T03:12:57.395Z,97815.09
2018-12-20T03:15:26.634Z,97813.11
2018-12-20T03:17:56.743Z,97815.20
2018-12-20T03:20:30.914Z,97814.98
2018-12-20T03:23:00.314Z,97816.85
2018-12-20T03:25:29.345Z,97809.27
2018-12-20T03:28:04.115Z,97813.09
2018-12-20T03:30:33.138Z,97816.66
2018-12-20T03:33:02.090Z,97808.50
2018-12-20T03:38:06.701Z,97800.55
2018-12-20T03:40:36.078Z,97798.78
2018-12-20T03:43:04.765Z,97794.07
2018-12-20T03:45:33.449Z,97793.44
2018-12-20T03:48:02.509Z,97798.27
2018-12-20T03:50:31.504Z,97786.62
2018-12-20T03:53:00.916Z,97790.42
2018-12-20T03:55:31.679Z,97781.77
2018-12-20T03:58:00.780Z,97775.48
2018-12-20T04:00:29.687Z,97789.80
2018-12-20T04:03:06.378Z,97801.08
2018-12-20T04:05:41.341Z,97788.11
2018-12-20T04:08:10.316Z,97778.53
2018-12-20T04:10:39.202Z,97774.23
2018-12-20T04:13:08.481Z,97779.15
2018-12-20T04:15:37.953Z,97778.05
2018-12-20T04:18:07.292Z,97768.80
2018-12-20T04:20:36.496Z,97783.30
2018-12-20T04:23:05.938Z,97768.45
2018-12-20T04:25:34.816Z,97770.41
2018-12-20T04:28:03.828Z,97775.54
2018-12-20T04:30:33.090Z,97771.31
2018-12-20T04:33:02.350Z,97767.22
2018-12-20T04:35:31.201Z,97759.92
2018-12-20T04:38:00.208Z,97757.46
2018-12-20T04:40:29.173Z,97753.56
2018-12-20T04:43:00.738Z,97758.40
2018-12-20T04:45:29.817Z,97756.12
2018-12-20T04:48:04.317Z,97764.81
2018-12-20T04:50:33.551Z,97776.13
2018-12-20T04:53:11.881Z,97787.44
2018-12-20T04:55:45.964Z,97790.44
2018-12-20T04:58:16.307Z,97780.13
2018-12-20T05:00:46.274Z,97768.64
2018-12-20T05:03:21.459Z,97779.88
2018-12-20T05:05:52.502Z,97790.89
2018-12-20T05:08:21.359Z,97796.32
2018-12-20T05:10:50.594Z,97799.69
2018-12-20T05:13:21.831Z,97801.03
2018-12-20T05:15:56.499Z,97798.86
2018-12-20T05:18:23.588Z,97792.81
2018-12-20T05:20:52.292Z,97797.52
2018-12-20T05:23:22.644Z,97799.42
2018-12-20T05:25:52.550Z,97797.95
2018-12-20T05:28:24.403Z,97794.47
2018-12-20T05:30:55.950Z,97801.06
2018-12-20T05:33:25.514Z,97796.80
2018-12-20T05:35:54.555Z,97799.08
2018-12-20T05:38:23.245Z,97794.47
2018-12-20T05:40:51.865Z,97797.70
2018-12-20T05:43:22.789Z,97808.81
2018-12-20T05:45:51.791Z,97807.47
2018-12-20T05:48:22.276Z,97811.63
2018-12-20T05:50:51.689Z,97816.76
2018-12-20T05:53:21.334Z,97816.25
2018-12-20T05:55:50.286Z,97814.37
2018-12-20T05:58:19.096Z,97814.51
2018-12-20T06:00:47.921Z,97817.58
2018-12-20T06:03:27.448Z,97825.80
2018-12-20T06:05:59.057Z,97829.09
2018-12-20T06:08:28.772Z,97823.73
2018-12-20T06:10:57.781Z,97843.19
2018-12-20T06:18:58.387Z,97829.78
2018-12-20T06:21:27.001Z,97845.52
2018-12-20T06:24:01.899Z,97836.47
2018-12-20T06:26:36.584Z,97833.08
2018-12-20T06:29:05.862Z,97844.82
2018-12-20T06:31:40.832Z,97846.56
2018-12-20T06:34:16.180Z,97851.81
2018-12-20T06:36:52.385Z,97854.98
2018-12-20T06:39:24.014Z,97857.16
2018-12-20T06:41:59.384Z,97861.49
2018-12-20T06:44:29.783Z,97856.03
2018-12-20T06:47:07.287Z,97855.95
2018-12-20T06:49:37.719Z,97852.45
2018-12-20T06:52:12.892Z,97850.39
2018-12-20T06:54:43.738Z,97846.29
2018-12-20T06:57:23.288Z,97850.52
2018-12-20T06:59:54.035Z,97857.73
2018-12-20T07:02:23.950Z,97857.33
2018-12-20T07:05:03.987Z,97852.98
2018-12-20T07:07:45.587Z,97857.61
2018-12-20T07:10:19.095Z,97866.25
2018-12-20T07:12:54.485Z,97867.78
2018-12-20T07:15:24.821Z,97860.66
2018-12-20T07:18:08.285Z,97874.66
2018-12-20T07:20:37.212Z,97861.89
2018-12-20T07:23:05.854Z,97871.15
2018-12-20T07:25:34.382Z,97873.43
2018-12-20T07:28:12.688Z,97882.98
2018-12-20T07:30:43.614Z,97882.15
2018-12-20T07:33:13.027Z,97877.70
2018-12-20T07:35:41.893Z,97882.87
2018-12-20T07:38:10.788Z,97873.08
2018-12-20T07:40:42.313Z,97889.33
2018-12-20T07:43:11.304Z,97887.80
2018-12-20T07:45:40.418Z,97879.45
2018-12-20T07:48:09.060Z,97884.19
2018-12-20T07:50:39.125Z,97893.98
2018-12-20T07:53:07.894Z,97891.41
2018-12-20T07:55:36.465Z,97887.00
2018-12-20T07:58:05.331Z,97900.78
2018-12-20T08:00:34.370Z,97904.90
2018-12-20T08:03:08.564Z,97907.55
2018-12-20T08:05:43.485Z,97914.05
2018-12-20T08:08:12.208Z,97908.81
2018-12-20T08:10:42.253Z,97924.95
2018-12-20T08:13:10.880Z,97923.00
2018-12-20T08:15:40.081Z,97936.16
2018-12-20T08:18:08.930Z,97934.72
2018-12-20T08:20:37.612Z,97942.64
2018-12-20T08:23:06.395Z,97946.28
2018-12-20T08:25:35.530Z,97928.35
2018-12-20T08:28:05.967Z,97941.73
2018-12-20T08:30:34.515Z,97956.22
2018-12-20T08:33:03.142Z,97955.80
2018-12-20T08:35:32.650Z,97961.66
2018-12-20T08:38:01.516Z,97965.14
2018-12-20T08:40:30.250Z,97969.08
2018-12-20T08:43:02.728Z,97961.71
2018-12-20T08:45:31.653Z,97971.48
2018-12-20T08:48:01.397Z,97975.19
2018-12-20T08:50:30.266Z,97964.80
2018-12-20T08:53:06.705Z,97966.75
2018-12-20T08:55:35.488Z,97981.77
2018-12-20T08:58:04.113Z,97978.66
2018-12-20T09:00:38.346Z,97983.73
2018-12-20T09:03:18.594Z,97991.23
2018-12-20T09:05:53.790Z,97992.16
2018-12-20T09:08:22.707Z,98004.00
2018-12-20T09:10:56.378Z,98011.83
2018-12-20T09:13:25.820Z,98015.71
2018-12-20T09:15:58.220Z,98024.36
2018-12-20T09:18:27.616Z,98019.80
2018-12-20T09:20:56.668Z,98025.16
2018-12-20T09:23:33.555Z,98023.94
2018-12-20T09:26:08.975Z,98032.16
2018-12-20T09:28:42.075Z,98038.56
2018-12-20T09:31:12.691Z,98040.73
2018-12-20T09:33:41.433Z,98037.91
2018-12-20T09:36:10.338Z,98037.27
2018-12-20T09:38:39.193Z,98032.92
2018-12-20T09:41:07.856Z,98041.86
2018-12-20T09:43:36.513Z,98044.07
2018-12-20T09:46:05.493Z,98038.55
2018-12-20T09:48:34.269Z,98046.27
2018-12-20T09:51:02.858Z,98050.80
2018-12-20T09:53:32.571Z,98055.66
2018-12-20T09:56:01.285Z,98052.09
2018-12-20T09:58:31.093Z,98055.93
2018-12-20T10:01:00.132Z,98056.22
2018-12-20T10:03:40.791Z,98053.03
2018-12-20T10:06:13.201Z,98050.86
2018-12-20T10:08:41.891Z,98048.73
2018-12-20T10:11:10.608Z,98049.34
2018-12-20T10:13:41.423Z,98050.17
2018-12-20T10:16:10.516Z,98044.88
2018-12-20T10:18:39.341Z,98044.66
2018-12-20T10:21:08.218Z,98041.25
2018-12-20T10:23:37.003Z,98039.62
2018-12-20T10:26:05.897Z,98038.01
2018-12-20T10:28:34.756Z,98042.25
2018-12-20T10:31:03.883Z,98038.44
2018-12-20T10:33:33.193Z,98040.88
2018-12-20T10:36:02.427Z,98038.00
2018-12-20T10:38:31.205Z,98039.46
2018-12-20T10:41:00.258Z,98047.95
2018-12-20T10:43:33.529Z,98048.34
2018-12-20T10:46:10.170Z,98043.20
2018-12-20T10:48:39.371Z,98037.45
2018-12-20T10:51:08.289Z,98038.27
2018-12-20T10:53:37.141Z,98025.14
2018-12-20T10:56:06.061Z,98033.97
2018-12-20T10:58:34.810Z,98031.45
2018-12-20T11:01:09.318Z,98030.44
2018-12-20T11:03:51.405Z,98025.31
2018-12-20T11:06:32.770Z,98020.67
2018-12-20T11:09:07.013Z,98022.02
2018-12-20T11:11:44.597Z,98019.05
2018-12-20T11:14:14.585Z,98014.98
2018-12-20T11:16:57.592Z,98010.72
2018-12-20T11:19:28.496Z,98014.42
2018-12-20T11:22:09.495Z,98005.52
2018-12-20T11:24:40.464Z,98000.93
2018-12-20T11:30:00.201Z,97996.39
2018-12-20T11:32:43.596Z,97992.47
2018-12-20T11:35:24.488Z,97990.88
2018-12-20T11:41:15.691Z,97984.05
2018-12-20T11:43:49.139Z,97976.89
2018-12-20T11:46:17.742Z,97978.36
2018-12-20T11:48:47.094Z,97974.55
2018-12-20T11:51:15.878Z,97967.59
2018-12-20T11:53:44.641Z,97964.09
2018-12-20T11:56:13.743Z,97966.71
2018-12-20T11:58:42.656Z,97971.63
2018-12-20T12:01:11.878Z,97965.95
2018-12-20T12:03:57.221Z,97966.73
2018-12-20T12:06:21.891Z,97959.67
2018-12-20T12:08:52.001Z,97966.26
2018-12-20T12:11:22.248Z,97964.11
2018-12-20T12:13:51.136Z,97960.59
2018-12-20T12:16:20.101Z,97955.42
2018-12-20T12:18:49.206Z,97958.65
2018-12-20T12:21:21.789Z,97957.73
2018-12-20T12:23:51.135Z,97955.31
2018-12-20T12:26:20.260Z,97953.58
2018-12-20T12:28:49.235Z,97949.11
2018-12-20T12:31:18.493Z,97954.60
2018-12-20T12:33:48.117Z,97946.11
2018-12-20T12:36:17.626Z,97937.88
2018-12-20T12:38:47.184Z,97935.41
2018-12-20T12:41:16.119Z,97938.14
2018-12-20T12:43:50.818Z,97936.30
2018-12-20T12:46:16.836Z,97936.95
2018-12-20T12:48:46.206Z,97934.02
2018-12-20T12:51:15.836Z,97936.59
2018-12-20T12:53:45.313Z,97928.31
2018-12-20T12:56:17.616Z,97934.66
2018-12-20T12:58:46.811Z,97940.94
2018-12-20T13:01:16.351Z,97939.64
2018-12-20T13:03:53.606Z,97937.78
2018-12-20T13:06:25.043Z,97937.23
2018-12-20T13:08:54.191Z,97936.39
2018-12-20T13:11:23.843Z,97937.06
2018-12-20T13:13:53.474Z,97931.56
2018-12-20T13:16:23.113Z,97933.97
2018-12-20T13:18:52.421Z,97934.83
2018-12-20T13:21:23.138Z,97931.96
2018-12-20T13:23:52.205Z,97931.60
2018-12-20T13:26:28.011Z,97932.59
2018-12-20T13:28:58.853Z,97938.48
2018-12-20T13:31:34.008Z,97940.77
2018-12-20T13:34:03.478Z,97944.48
2018-12-20T13:36:32.853Z,97948.52
2018-12-20T13:39:01.929Z,97948.75
2018-12-20T13:41:36.524Z,97950.22
2018-12-20T13:44:07.823Z,97949.50
2018-12-20T13:46:40.810Z,97943.13
2018-12-20T13:49:12.528Z,97952.78
2018-12-20T13:51:41.730Z,97956.23
2018-12-20T13:54:10.701Z,97961.33
2018-12-20T13:56:47.296Z,97954.73
2018-12-20T13:59:20.113Z,97954.49
2018-12-20T14:01:49.305Z,97945.41
2018-12-20T14:04:25.701Z,97955.60
2018-12-20T14:07:18.673Z,97957.28
2018-12-20T14:09:48.432Z,97957.46
2018-12-20T14:12:27.701Z,97950.95
2018-12-20T14:14:57.943Z,97956.80
2018-12-20T14:17:36.286Z,97958.23
2018-12-20T14:20:07.646Z,97964.23
2018-12-20T14:22:52.904Z,97971.34
2018-12-20T14:25:25.861Z,97971.25
2018-12-20T14:28:03.518Z,97972.23
2018-12-20T14:30:32.181Z,97973.03
2018-12-20T14:33:01.384Z,97978.05
2018-12-20T14:35:30.476Z,97978.22
2018-12-20T14:37:59.516Z,97980.82
2018-12-20T14:40:28.792Z,97985.91
2018-12-20T14:43:08.039Z,97987.77
2018-12-20T14:45:36.842Z,97993.15
2018-12-20T14:48:05.777Z,97996.06
2018-12-20T14:50:34.663Z,97992.48
2018-12-20T14:53:04.037Z,97996.37
2018-12-20T14:55:33.176Z,97998.47
2018-12-20T14:58:08.960Z,97995.27
2018-12-20T15:00:37.836Z,98001.50
2018-12-20T15:03:17.900Z,98002.79
2018-12-20T15:05:52.585Z,97996.81
2018-12-20T15:08:21.250Z,97996.66
2018-12-20T15:10:49.999Z,98007.79
2018-12-20T15:13:21.502Z,98012.11
2018-12-20T15:15:50.760Z,98009.64
2018-12-20T15:18:20.405Z,98014.05
2018-12-20T15:20:50.190Z,98022.66
2018-12-20T15:23:21.657Z,98034.01
2018-12-20T15:25:52.077Z,98031.59
2018-12-20T15:28:26.914Z,98036.36
2018-12-20T15:30:55.990Z,98040.94
2018-12-20T15:33:25.667Z,98045.20
2018-12-20T15:35:56.092Z,98048.47
2018-12-20T15:38:25.653Z,98046.52
2018-12-20T15:40:54.411Z,98053.98
2018-12-20T15:43:23.247Z,98043.67
2018-12-20T15:45:51.908Z,98043.19
2018-12-20T15:48:20.762Z,98050.34
2018-12-20T15:50:55.723Z,98051.55
2018-12-20T15:53:37.105Z,98057.45
2018-12-20T15:56:14.821Z,98059.35
2018-12-20T15:58:45.535Z,98059.47
2018-12-20T16:01:38.732Z,98057.67
2018-12-20T16:04:20.506Z,98062.59
2018-12-20T16:09:53.737Z,98061.63
2018-12-20T16:12:34.412Z,98062.56
2018-12-20T16:15:05.706Z,98064.70
2018-12-20T16:17:48.308Z,98063.65
2018-12-20T16:20:22.381Z,98067.55
2018-12-20T16:25:47.350Z,98072.11
2018-12-20T16:28:17.447Z,98072.55
2018-12-20T16:30:49.206Z,98079.03
2018-12-20T16:33:26.213Z,98077.95
2018-12-20T16:35:55.973Z,98079.47
2018-12-20T16:38:26.470Z,98087.13
2018-12-20T16:40:56.070Z,98088.14
2018-12-20T16:43:26.700Z,98093.23
2018-12-20T16:46:00.147Z,98091.28
2018-12-20T16:48:37.007Z,98096.37
2018-12-20T16:51:06.814Z,98092.33
2018-12-20T16:53:50.904Z,98096.68
2018-12-20T16:56:24.099Z,98093.73
2018-12-20T16:58:54.503Z,98104.05
2018-12-20T17:01:25.612Z,98100.97
2018-12-20T17:04:03.640Z,98109.25
2018-12-20T17:06:38.504Z,98118.79
2018-12-20T17:09:08.727Z,98117.56
2018-12-20T17:11:38.072Z,98116.93
2018-12-20T17:14:08.075Z,98121.25
2018-12-20T17:16:47.417Z,98112.13
2018-12-20T17:19:22.019Z,98110.52
2018-12-20T17:21:52.814Z,98113.14
2018-12-20T17:24:22.610Z,98116.90
2018-12-20T17:26:56.828Z,98120.67
2018-12-20T17:29:28.362Z,98117.54
2018-12-20T17:32:09.607Z,98122.02
2018-12-20T17:34:42.272Z,98127.91
2018-12-20T17:37:22.012Z,98132.73
2018-12-20T17:39:57.488Z,98139.75
2018-12-20T17:42:36.005Z,98134.02
2018-12-20T17:45:07.562Z,98138.63
2018-12-20T17:47:43.650Z,98141.44
2018-12-20T17:50:26.625Z,98142.56
2018-12-20T17:52:55.964Z,98146.47
2018-12-20T17:55:32.732Z,98152.55
2018-12-20T17:58:24.713Z,98145.36
2018-12-20T18:01:10.127Z,98154.26
2018-12-20T18:03:49.778Z,98150.56
2018-12-20T18:06:19.041Z,98154.44
2018-12-20T18:09:07.201Z,98161.93
2018-12-20T18:11:40.517Z,98152.56
2018-12-20T18:17:05.718Z,98161.60
2018-12-20T18:19:39.190Z,98164.42
2018-12-20T18:22:31.310Z,98160.38
2018-12-20T18:25:13.108Z,98156.16
2018-12-20T18:28:04.507Z,98166.03
2018-12-20T18:30:45.715Z,98169.66
2018-12-20T18:33:27.508Z,98161.55
2018-12-20T18:36:04.452Z,98170.50
2018-12-20T18:38:37.804Z,98178.09
2018-12-20T18:41:22.768Z,98177.48
2018-12-20T18:44:00.555Z,98175.53
2018-12-20T18:46:38.809Z,98176.95
2018-12-20T18:49:30.457Z,98183.86
2018-12-20T18:55:01.005Z,98187.86
2018-12-20T18:57:48.510Z,98177.53
2018-12-20T19:00:22.295Z,98191.66
2018-12-20T19:03:01.010Z,98193.63
2018-12-20T19:08:26.710Z,98184.19
2018-12-20T19:11:00.175Z,98189.84
2018-12-20T19:16:16.689Z,98190.88
2018-12-20T19:18:56.745Z,98191.67
2018-12-20T19:21:26.340Z,98191.75
2018-12-20T19:24:13.399Z,98191.80
2018-12-20T19:26:55.213Z,98200.25
2018-12-20T19:29:37.267Z,98192.78
2018-12-20T19:32:16.510Z,98200.27
2018-12-20T19:35:04.519Z,98198.92
2018-12-20T19:38:01.705Z,98201.03
2018-12-20T19:40:33.888Z,98205.48
2018-12-20T19:43:05.236Z,98209.41
2018-12-20T19:45:46.218Z,98211.20
2018-12-20T19:48:31.820Z,98204.91
2018-12-20T19:51:18.212Z,98198.06
2018-12-20T19:54:01.511Z,98209.47
2018-12-20T19:56:37.835Z,98211.16
2018-12-20T19:59:24.325Z,98210.30
2018-12-20T20:02:04.573Z,98215.63
2018-12-20T20:10:19.666Z,98225.28
2018-12-20T20:13:04.619Z,98222.40
2018-12-20T20:15:48.198Z,98222.00
2018-12-20T20:18:32.208Z,98224.44
2018-12-20T20:21:11.934Z,98233.92
2018-12-20T20:23:59.008Z,98236.30
2018-12-20T20:26:43.016Z,98239.89
2018-12-20T20:29:30.737Z,98242.27
2018-12-20T20:32:05.026Z,98242.51
2018-12-20T20:43:25.011Z,98248.55
2018-12-20T20:46:03.778Z,98242.27
2018-12-20T20:48:55.008Z,98248.83
2018-12-20T20:51:35.828Z,98248.19
2018-12-20T20:54:20.276Z,98252.53
2018-12-20T20:57:03.596Z,98258.61
2018-12-20T20:59:33.651Z,98266.23
2018-12-20T21:02:06.226Z,98263.55
2018-12-20T21:07:50.991Z,98257.50
2018-12-20T21:10:26.698Z,98257.89
2018-12-20T21:13:15.696Z,98264.78
2018-12-20T21:15:56.291Z,98263.47
2018-12-20T21:18:43.939Z,98272.28
2018-12-20T21:21:17.091Z,98272.28
2018-12-20T21:24:13.321Z,98269.80
2018-12-20T21:26:48.124Z,98272.42
2018-12-20T21:29:20.516Z,98276.20
2018-12-20T21:31:55.511Z,98276.80
2018-12-20T21:38:23.006Z,98281.69
2018-12-20T21:40:53.888Z,98286.58
2018-12-20T21:43:26.091Z,98282.12
2018-12-20T21:46:05.088Z,98285.80
2018-12-20T21:54:16.566Z,98306.80
2018-12-20T21:56:59.519Z,98320.92
2018-12-20T21:59:51.176Z,98315.70
2018-12-20T22:02:28.716Z,98314.56
2018-12-20T22:08:32.242Z,98308.72
2018-12-20T22:11:02.819Z,98310.63
2018-12-20T22:13:36.315Z,98317.92
2018-12-20T22:16:08.148Z,98316.52
2018-12-20T22:18:44.401Z,98321.28
2018-12-20T22:21:15.716Z,98316.67
2018-12-20T22:23:49.161Z,98313.62
2018-12-20T22:26:24.215Z,98311.28
2018-12-20T22:28:56.453Z,98312.07
2018-12-20T22:31:26.151Z,98313.05
2018-12-20T22:34:01.248Z,98309.77
2018-12-20T22:36:34.713Z,98309.75
2018-12-20T22:39:06.639Z,98309.67
2018-12-20T22:42:00.814Z,98309.02
2018-12-20T22:47:50.416Z,98321.48
2018-12-20T22:50:29.444Z,98316.89
2018-12-20T22:53:14.156Z,98322.92
2018-12-20T22:56:09.783Z,98321.09
2018-12-20T22:58:56.473Z,98321.33
2018-12-20T23:01:48.151Z,98316.27
2018-12-20T23:04:33.963Z,98325.70
2018-12-20T23:07:23.815Z,98335.52
2018-12-20T23:13:01.526Z,98337.25
2018-12-20T23:15:46.739Z,98337.17
2018-12-20T23:18:21.693Z,98341.43
2018-12-20T23:20:54.449Z,98337.34
2018-12-20T23:23:39.622Z,98336.33
2018-12-20T23:26:12.710Z,98333.95
2018-12-20T23:34:37.287Z,98339.34
2018-12-20T23:37:25.112Z,98331.56
2018-12-20T23:40:00.710Z,98338.11
2018-12-20T23:42:35.818Z,98333.50
2018-12-20T23:48:12.453Z,98313.58
2018-12-20T23:50:52.425Z,98308.98
2018-12-20T23:53:26.243Z,98316.33
2018-12-20T23:56:00.716Z,98318.65
2018-12-20T23:58:47.516Z,98321.47
